createdAt,value
2019-01-26T00:00:03.344Z,-4.8
2019-01-26T00:15:02.853Z,-4.7
2019-01-26T00:30:03.351Z,-4.6
2019-01-26T00:45:02.643Z,-4.6
2019-01-26T01:00:02.947Z,-4.5
2019-01-26T01:15:03.307Z,-4.4
2019-01-26T01:30:02.644Z,-4.2
2019-01-26T01:45:02.983Z,-4.2
2019-01-26T02:00:03.226Z,-4.1
2019-01-26T02:15:03.379Z,-4
2019-01-26T02:30:02.715Z,-3.9
2019-01-26T02:45:03.064Z,-3.9
2019-01-26T03:00:03.389Z,-3.8
2019-01-26T03:15:02.611Z,-3.8
2019-01-26T03:30:03.047Z,-3.7
2019-01-26T03:45:03.382Z,-3.5
2019-01-26T04:00:02.666Z,-3.2
2019-01-26T04:15:02.916Z,-3.1
2019-01-26T04:30:03.237Z,-3
2019-01-26T04:45:02.491Z,-2.9
2019-01-26T05:00:02.957Z,-2.7
2019-01-26T05:15:03.382Z,-2.4
2019-01-26T05:30:02.703Z,-2.4
2019-01-26T05:45:02.984Z,-2.4
2019-01-26T06:00:03.102Z,-2.6
2019-01-26T06:15:03.465Z,-2.6
2019-01-26T06:30:02.954Z,-2.6
2019-01-26T06:45:03.385Z,-2.5
2019-01-26T07:00:02.650Z,-2.2
2019-01-26T07:15:02.902Z,-2.1
2019-01-26T07:30:03.330Z,-1.9
2019-01-26T07:45:02.565Z,-1.7
2019-01-26T08:00:02.856Z,-1.6
2019-01-26T08:15:03.218Z,-1.4
2019-01-26T08:30:02.583Z,-1.2
2019-01-26T08:45:02.989Z,-1
2019-01-26T09:00:03.296Z,-0.8
2019-01-26T09:15:02.747Z,-0.6
2019-01-26T09:30:03.450Z,-0.4
2019-01-26T09:45:03.381Z,0
2019-01-26T10:00:03.309Z,0.4
2019-01-26T10:15:02.747Z,0.8
2019-01-26T10:30:03.105Z,1.1
2019-01-26T10:45:02.422Z,1.4
2019-01-26T11:00:02.680Z,1.5
2019-01-26T11:15:03.125Z,1.6
2019-01-26T11:30:02.866Z,1.7
2019-01-26T11:45:03.070Z,1.8
2019-01-26T12:00:02.454Z,1.9
2019-01-26T12:15:02.817Z,2.2
2019-01-26T12:30:03.220Z,2.5
2019-01-26T12:45:03.854Z,2.6
2019-01-26T13:00:02.815Z,2.8
2019-01-26T13:15:03.260Z,2.8
2019-01-26T13:30:02.848Z,2.7
2019-01-26T13:45:03.275Z,2.9
2019-01-26T14:00:03.232Z,3
2019-01-26T14:15:02.571Z,2.9
2019-01-26T14:30:03.038Z,3
2019-01-26T14:45:03.201Z,3
2019-01-26T15:00:02.574Z,3.1
2019-01-26T15:15:02.891Z,2.9
2019-01-26T15:30:03.497Z,2.9
2019-01-26T15:45:03.315Z,2.8
2019-01-26T16:00:02.828Z,2.9
2019-01-26T16:15:03.129Z,3.1
2019-01-26T16:30:02.482Z,3
2019-01-26T16:45:02.732Z,2.9
2019-01-26T17:00:03.876Z,2.8
2019-01-26T17:15:03.367Z,2.7
2019-01-26T17:30:02.982Z,2.7
2019-01-26T17:45:03.267Z,2.5
2019-01-26T18:00:02.546Z,2.8
2019-01-26T18:15:03.156Z,2.9
2019-01-26T18:30:02.679Z,2.9
2019-01-26T18:45:02.892Z,2.8
2019-01-26T19:00:03.202Z,2.9
2019-01-26T19:15:02.721Z,2.8
2019-01-26T19:30:03.020Z,2.4
2019-01-26T19:45:03.382Z,2.5
2019-01-26T20:00:02.655Z,2.6
2019-01-26T20:15:02.958Z,2.5
2019-01-26T20:30:03.363Z,2.4
2019-01-26T20:45:02.737Z,2.4
2019-01-26T21:00:02.928Z,2.1
2019-01-26T21:15:04.714Z,1.8
2019-01-26T21:30:02.812Z,1.6
2019-01-26T21:45:03.218Z,1.6
2019-01-26T22:00:02.587Z,1.4
2019-01-26T22:15:02.770Z,1.6
2019-01-26T22:30:03.210Z,1.2
2019-01-26T22:45:02.499Z,1.1
2019-01-26T23:00:02.822Z,1.1
2019-01-26T23:15:03.121Z,1
2019-01-26T23:30:02.645Z,0.7
2019-01-26T23:45:02.870Z,0.5
